createdAt,value
2018-12-19T00:02:04.481Z,113.73
2018-12-19T00:04:31.977Z,119.43
2018-12-19T00:06:59.477Z,122.47
2018-12-19T00:09:26.952Z,127.37
2018-12-19T00:11:54.432Z,132.03
2018-12-19T00:14:21.944Z,131.30
2018-12-19T00:16:49.434Z,127.00
2018-12-19T00:19:16.908Z,120.73
2018-12-19T00:21:44.432Z,120.27
2018-12-19T00:24:12.016Z,121.00
2018-12-19T00:26:40.028Z,118.60
2018-12-19T00:29:07.542Z,120.00
2018-12-19T00:31:35.021Z,115.47
2018-12-19T00:34:02.505Z,118.07
2018-12-19T00:36:30.957Z,121.47
2018-12-19T00:38:58.444Z,119.33
2018-12-19T00:41:25.928Z,110.70
2018-12-19T00:43:53.430Z,111.50
2018-12-19T00:46:20.916Z,110.80
2018-12-19T00:48:48.428Z,114.67
2018-12-19T00:51:16.785Z,113.87
2018-12-19T00:53:44.263Z,116.53
2018-12-19T00:56:11.740Z,108.93
2018-12-19T00:58:39.248Z,113.70
2018-12-19T01:01:06.726Z,111.43
2018-12-19T01:03:34.218Z,111.27
2018-12-19T01:06:01.852Z,107.27
2018-12-19T01:08:29.343Z,109.60
2018-12-19T01:10:56.828Z,107.20
2018-12-19T01:13:24.355Z,104.93
2018-12-19T01:15:51.940Z,107.43
2018-12-19T01:18:19.420Z,106.60
2018-12-19T01:20:46.936Z,108.03
2018-12-19T01:23:14.419Z,107.47
2018-12-19T01:25:41.903Z,109.47
2018-12-19T01:28:09.790Z,107.20
2018-12-19T01:30:37.277Z,105.37
2018-12-19T01:33:04.753Z,107.17
2018-12-19T01:35:32.259Z,111.80
2018-12-19T01:37:59.736Z,111.30
2018-12-19T01:40:27.216Z,108.63
2018-12-19T01:42:54.723Z,105.97
2018-12-19T01:45:22.244Z,104.53
2018-12-19T01:47:49.917Z,104.80
2018-12-19T01:50:17.428Z,102.07
2018-12-19T01:52:44.912Z,103.83
2018-12-19T01:55:12.401Z,100.30
2018-12-19T01:57:39.908Z,101.80
2018-12-19T02:00:07.386Z,99.90
2018-12-19T02:02:34.873Z,101.37
2018-12-19T02:05:02.505Z,102.33
2018-12-19T02:07:30.078Z,102.00
2018-12-19T02:09:57.560Z,107.27
2018-12-19T02:12:25.061Z,102.60
2018-12-19T02:14:52.540Z,101.10
2018-12-19T02:17:20.032Z,102.50
2018-12-19T02:19:47.532Z,101.93
2018-12-19T02:22:15.011Z,105.60
2018-12-19T02:24:42.492Z,103.40
2018-12-19T02:27:09.992Z,106.03
2018-12-19T02:29:37.477Z,109.53
2018-12-19T02:32:06.957Z,104.40
2018-12-19T02:34:34.487Z,104.13
2018-12-19T02:37:01.968Z,106.63
2018-12-19T02:39:35.967Z,104.53
2018-12-19T02:41:58.972Z,101.47
2018-12-19T02:44:26.468Z,103.07
2018-12-19T02:46:54.047Z,104.03
2018-12-19T02:49:21.564Z,104.67
2018-12-19T02:51:49.156Z,104.37
2018-12-19T02:54:16.640Z,106.27
2018-12-19T02:56:44.149Z,102.10
2018-12-19T02:59:11.624Z,102.03
2018-12-19T03:01:39.111Z,106.67
2018-12-19T03:04:06.616Z,107.27
2018-12-19T03:06:34.099Z,106.93
2018-12-19T03:09:01.584Z,104.30
2018-12-19T03:11:29.096Z,106.13
2018-12-19T03:13:57.374Z,104.77
2018-12-19T03:16:24.852Z,108.17
2018-12-19T03:18:52.375Z,109.40
2018-12-19T03:21:19.853Z,110.57
2018-12-19T03:23:47.332Z,106.00
2018-12-19T03:26:14.840Z,109.83
2018-12-19T03:28:42.330Z,109.77
2018-12-19T03:31:09.817Z,111.13
2018-12-19T03:33:37.316Z,113.63
2018-12-19T03:36:05.399Z,116.13
2018-12-19T03:38:32.892Z,115.73
2018-12-19T03:41:00.636Z,110.53
2018-12-19T03:43:28.118Z,109.43
2018-12-19T03:45:55.600Z,106.93
2018-12-19T03:48:28.756Z,106.93
2018-12-19T03:50:56.244Z,108.70
2018-12-19T03:53:23.723Z,107.13
2018-12-19T03:55:51.242Z,108.50
2018-12-19T03:58:18.725Z,108.03
2018-12-19T04:00:46.205Z,109.07
2018-12-19T04:03:13.726Z,110.83
2018-12-19T04:05:41.215Z,112.00
2018-12-19T04:08:08.696Z,109.30
2018-12-19T04:10:36.208Z,110.70
2018-12-19T04:13:03.693Z,110.13
2018-12-19T04:15:31.177Z,110.03
2018-12-19T04:17:58.685Z,113.87
2018-12-19T04:20:26.170Z,114.30
2018-12-19T04:22:53.655Z,115.10
2018-12-19T04:25:21.177Z,111.70
2018-12-19T04:27:48.661Z,111.70
2018-12-19T04:30:16.148Z,116.00
2018-12-19T04:32:44.296Z,115.73
2018-12-19T04:35:11.784Z,113.23
2018-12-19T04:37:39.275Z,110.13
2018-12-19T04:40:06.784Z,117.80
2018-12-19T04:42:34.277Z,114.33
2018-12-19T04:45:01.770Z,113.93
2018-12-19T04:47:29.296Z,117.17
2018-12-19T04:49:56.801Z,112.73
2018-12-19T04:52:24.291Z,112.93
2018-12-19T04:54:51.828Z,118.57
2018-12-19T04:57:19.312Z,119.13
2018-12-19T04:59:46.796Z,118.43
2018-12-19T05:02:14.429Z,120.30
2018-12-19T05:04:41.919Z,120.77
2018-12-19T05:07:09.404Z,120.50
2018-12-19T05:09:37.002Z,121.33
2018-12-19T05:12:04.489Z,120.50
2018-12-19T05:14:32.277Z,119.07
2018-12-19T05:16:59.801Z,121.50
2018-12-19T05:19:27.286Z,123.30
2018-12-19T05:21:54.802Z,125.23
2018-12-19T05:24:22.424Z,126.07
2018-12-19T05:26:49.908Z,130.70
2018-12-19T05:29:17.503Z,130.20
2018-12-19T05:31:45.021Z,128.00
2018-12-19T05:34:12.536Z,131.17
2018-12-19T05:36:40.029Z,127.83
2018-12-19T05:39:07.566Z,130.87
2018-12-19T05:41:35.044Z,129.60
2018-12-19T05:44:02.529Z,129.83
2018-12-19T05:46:30.040Z,131.93
2018-12-19T05:48:57.528Z,124.00
2018-12-19T05:51:25.014Z,126.80
2018-12-19T05:53:52.529Z,125.70
2018-12-19T05:56:20.018Z,124.63
2018-12-19T05:58:47.503Z,122.83
2018-12-19T06:01:15.036Z,124.80
2018-12-19T06:03:42.524Z,125.83
2018-12-19T06:06:10.025Z,123.43
2018-12-19T06:08:37.528Z,123.37
2018-12-19T06:11:05.039Z,121.53
2018-12-19T06:13:32.620Z,119.30
2018-12-19T06:16:00.144Z,119.93
2018-12-19T06:18:27.633Z,113.30
2018-12-19T06:20:55.121Z,116.70
2018-12-19T06:23:22.767Z,116.93
2018-12-19T06:25:50.252Z,119.70
2018-12-19T06:28:17.738Z,116.40
2018-12-19T06:30:45.512Z,116.07
2018-12-19T06:33:12.996Z,117.50
2018-12-19T06:35:40.484Z,115.30
2018-12-19T06:38:08.005Z,109.30
2018-12-19T06:40:35.492Z,109.93
2018-12-19T06:43:02.980Z,107.50
2018-12-19T06:45:30.492Z,108.70
2018-12-19T06:47:57.974Z,110.17
2018-12-19T06:50:25.482Z,106.57
2018-12-19T06:52:52.985Z,104.57
2018-12-19T06:55:20.468Z,97.43
2018-12-19T06:57:47.955Z,101.77
2018-12-19T07:00:15.484Z,96.63
2018-12-19T07:02:42.969Z,99.07
2018-12-19T07:05:10.449Z,95.97
2018-12-19T07:07:37.964Z,94.80
2018-12-19T07:10:05.931Z,93.57
2018-12-19T07:12:33.439Z,88.00
2018-12-19T07:15:01.044Z,88.43
2018-12-19T07:17:28.529Z,82.67
2018-12-19T07:19:56.013Z,84.43
2018-12-19T07:22:23.544Z,81.27
2018-12-19T07:24:51.024Z,82.50
2018-12-19T07:27:18.519Z,84.50
2018-12-19T07:29:46.025Z,79.10
2018-12-19T07:32:13.508Z,80.17
2018-12-19T07:34:44.179Z,76.47
2018-12-19T07:37:10.517Z,82.63
2018-12-19T07:39:37.996Z,77.77
2018-12-19T07:42:05.570Z,78.80
2018-12-19T07:44:33.081Z,78.77
2018-12-19T07:47:00.566Z,79.30
2018-12-19T07:49:28.040Z,85.03
2018-12-19T07:51:55.552Z,79.77
2018-12-19T07:54:23.060Z,77.17
2018-12-19T07:56:50.545Z,78.63
2018-12-19T07:59:18.064Z,78.83
2018-12-19T08:01:45.549Z,78.10
2018-12-19T08:04:13.224Z,77.43
2018-12-19T08:06:40.933Z,78.20
2018-12-19T08:09:08.419Z,73.00
2018-12-19T08:11:36.001Z,76.77
2018-12-19T08:14:04.109Z,74.87
2018-12-19T08:16:31.592Z,75.17
2018-12-19T08:18:59.078Z,78.83
2018-12-19T08:21:26.576Z,73.00
2018-12-19T08:23:54.060Z,72.67
2018-12-19T08:26:21.545Z,72.20
2018-12-19T08:28:49.571Z,71.93
2018-12-19T08:31:17.056Z,72.97
2018-12-19T08:33:44.532Z,72.87
2018-12-19T08:36:12.049Z,71.90
2018-12-19T08:38:39.529Z,74.50
2018-12-19T08:41:07.020Z,70.80
2018-12-19T08:43:34.552Z,71.43
2018-12-19T08:46:02.332Z,70.17
2018-12-19T08:48:29.809Z,69.47
2018-12-19T08:50:57.324Z,71.33
2018-12-19T08:53:24.815Z,68.17
2018-12-19T08:55:52.308Z,68.87
2018-12-19T08:58:19.817Z,71.60
2018-12-19T09:00:49.299Z,67.60
2018-12-19T09:03:16.780Z,68.30
2018-12-19T09:05:44.296Z,67.47
2018-12-19T09:08:11.775Z,68.43
2018-12-19T09:10:39.262Z,67.10
2018-12-19T09:13:06.876Z,71.20
2018-12-19T09:15:39.924Z,66.47
2018-12-19T09:18:07.453Z,69.77
2018-12-19T09:20:34.937Z,68.70
2018-12-19T09:23:02.417Z,67.47
2018-12-19T09:25:29.916Z,66.97
2018-12-19T09:27:57.397Z,66.20
2018-12-19T09:30:24.876Z,66.17
2018-12-19T09:32:52.694Z,68.10
2018-12-19T09:35:20.289Z,67.30
2018-12-19T09:37:47.763Z,66.57
2018-12-19T09:40:15.260Z,63.53
2018-12-19T09:42:42.740Z,65.60
2018-12-19T09:45:10.220Z,62.23
2018-12-19T09:47:37.768Z,60.77
2018-12-19T09:50:07.488Z,61.13
2018-12-19T09:52:34.969Z,58.87
2018-12-19T09:55:02.472Z,59.27
2018-12-19T09:57:30.152Z,59.83
2018-12-19T09:59:57.775Z,58.10
2018-12-19T10:02:25.445Z,58.00
2018-12-19T10:04:52.937Z,56.23
2018-12-19T10:07:20.444Z,58.03
2018-12-19T10:09:47.957Z,58.27
2018-12-19T10:12:15.436Z,57.10
2018-12-19T10:14:42.915Z,55.67
2018-12-19T10:17:10.452Z,55.17
2018-12-19T10:19:37.940Z,55.97
2018-12-19T10:22:05.422Z,55.50
2018-12-19T10:24:38.683Z,53.83
2018-12-19T10:27:06.152Z,54.17
2018-12-19T10:29:33.633Z,51.43
2018-12-19T10:32:01.177Z,52.83
2018-12-19T10:34:28.657Z,51.17
2018-12-19T10:36:56.197Z,48.40
2018-12-19T10:39:24.031Z,49.20
2018-12-19T10:41:51.504Z,50.07
2018-12-19T10:44:19.477Z,51.20
2018-12-19T10:46:47.264Z,50.93
2018-12-19T10:49:14.768Z,49.77
2018-12-19T10:51:42.256Z,47.23
2018-12-19T10:54:09.757Z,47.80
2018-12-19T10:56:37.234Z,49.17
2018-12-19T10:59:04.709Z,46.90
2018-12-19T11:01:32.233Z,50.17
2018-12-19T11:03:59.716Z,47.20
2018-12-19T11:06:27.196Z,49.57
2018-12-19T11:08:54.697Z,48.90
2018-12-19T11:11:22.179Z,52.27
2018-12-19T11:13:49.660Z,47.33
2018-12-19T11:16:17.181Z,49.57
2018-12-19T11:18:44.656Z,47.57
2018-12-19T11:21:12.634Z,46.83
2018-12-19T11:23:40.449Z,48.17
2018-12-19T11:26:08.040Z,49.97
2018-12-19T11:28:35.516Z,48.03
2018-12-19T11:31:03.130Z,46.17
2018-12-19T11:33:30.612Z,47.17
2018-12-19T11:35:58.081Z,45.73
2018-12-19T11:38:25.584Z,47.27
2018-12-19T11:40:53.349Z,46.57
2018-12-19T11:43:20.839Z,48.70
2018-12-19T11:45:48.466Z,50.93
2018-12-19T11:48:15.944Z,46.53
2018-12-19T11:50:43.416Z,47.13
2018-12-19T11:53:10.921Z,47.93
2018-12-19T11:55:38.402Z,44.80
2018-12-19T11:58:06.042Z,46.10
2018-12-19T12:00:33.538Z,45.80
2018-12-19T12:03:01.015Z,45.83
2018-12-19T12:05:28.488Z,45.83
2018-12-19T12:07:56.024Z,44.70
2018-12-19T12:10:23.498Z,45.27
2018-12-19T12:12:50.972Z,46.07
2018-12-19T12:15:18.480Z,47.10
2018-12-19T12:17:45.957Z,46.47
2018-12-19T12:20:13.436Z,45.03
2018-12-19T12:22:41.233Z,46.03
2018-12-19T12:25:09.040Z,46.80
2018-12-19T12:27:36.526Z,48.57
2018-12-19T12:30:05.728Z,46.20
2018-12-19T12:32:33.620Z,48.80
2018-12-19T12:35:01.094Z,49.57
2018-12-19T12:37:28.588Z,51.30
2018-12-19T12:39:56.076Z,49.87
2018-12-19T12:42:23.773Z,49.63
2018-12-19T12:44:52.301Z,48.53
2018-12-19T12:47:19.781Z,48.07
2018-12-19T12:49:47.361Z,48.13
2018-12-19T12:52:14.885Z,47.77
2018-12-19T12:54:42.365Z,46.50
2018-12-19T12:57:09.845Z,47.23
2018-12-19T12:59:37.448Z,47.67
2018-12-19T13:02:04.939Z,49.03
2018-12-19T13:07:06.278Z,50.83
2018-12-19T13:09:33.752Z,50.83
2018-12-19T13:12:01.232Z,51.90
2018-12-19T13:14:28.836Z,51.23
2018-12-19T13:16:56.314Z,51.37
2018-12-19T13:19:23.840Z,51.03
2018-12-19T13:21:51.352Z,50.20
2018-12-19T13:24:18.837Z,48.90
2018-12-19T13:26:46.312Z,46.77
2018-12-19T13:29:13.824Z,47.73
2018-12-19T13:31:41.308Z,46.33
2018-12-19T13:34:08.785Z,51.03
2018-12-19T13:36:36.296Z,48.73
2018-12-19T13:39:06.162Z,49.47
2018-12-19T13:41:33.632Z,48.20
2018-12-19T13:44:01.161Z,49.90
2018-12-19T13:46:28.640Z,51.90
2018-12-19T13:48:56.124Z,48.53
2018-12-19T13:51:23.645Z,50.23
2018-12-19T13:53:51.124Z,48.10
2018-12-19T13:56:18.600Z,48.60
2018-12-19T13:58:46.114Z,46.83
2018-12-19T14:01:13.685Z,49.50
2018-12-19T14:03:41.175Z,48.17
2018-12-19T14:06:08.697Z,49.57
2018-12-19T14:08:36.218Z,52.87
2018-12-19T14:11:03.704Z,52.00
2018-12-19T14:13:31.210Z,54.03
2018-12-19T14:15:59.608Z,49.30
2018-12-19T14:18:27.092Z,48.37
2018-12-19T14:20:54.605Z,49.30
2018-12-19T14:23:22.083Z,49.67
2018-12-19T14:25:49.561Z,49.13
2018-12-19T14:28:17.303Z,49.57
2018-12-19T14:30:44.783Z,47.30
2018-12-19T14:33:12.263Z,49.47
2018-12-19T14:35:39.776Z,46.97
2018-12-19T14:38:07.280Z,47.93
2018-12-19T14:40:34.759Z,49.43
2018-12-19T14:43:02.276Z,48.60
2018-12-19T14:45:29.870Z,47.70
2018-12-19T14:47:57.645Z,49.67
2018-12-19T14:50:25.146Z,47.30
2018-12-19T14:52:52.626Z,57.80
2018-12-19T14:55:20.105Z,51.20
2018-12-19T14:57:47.612Z,51.27
2018-12-19T15:00:15.093Z,47.67
2018-12-19T15:02:42.567Z,49.27
2018-12-19T15:05:10.274Z,49.37
2018-12-19T15:07:37.753Z,50.00
2018-12-19T15:10:07.288Z,48.57
2018-12-19T15:12:34.800Z,47.63
2018-12-19T15:15:02.429Z,47.43
2018-12-19T15:17:29.910Z,48.33
2018-12-19T15:19:57.420Z,48.50
2018-12-19T15:22:24.901Z,51.67
2018-12-19T15:24:52.382Z,49.67
2018-12-19T15:27:19.988Z,46.93
2018-12-19T15:29:47.472Z,46.97
2018-12-19T15:32:14.956Z,46.80
2018-12-19T15:34:42.467Z,47.90
2018-12-19T15:37:09.941Z,46.73
2018-12-19T15:39:37.427Z,48.10
2018-12-19T15:42:04.943Z,46.40
2018-12-19T15:44:32.430Z,45.70
2018-12-19T15:47:00.156Z,45.37
2018-12-19T15:49:27.661Z,44.33
2018-12-19T15:51:55.147Z,44.57
2018-12-19T15:54:22.632Z,44.00
2018-12-19T15:56:50.132Z,47.90
2018-12-19T15:59:17.600Z,44.73
2018-12-19T16:01:45.080Z,46.27
2018-12-19T16:04:12.584Z,45.23
2018-12-19T16:06:40.061Z,46.83
2018-12-19T16:09:07.536Z,45.97
2018-12-19T16:11:35.051Z,47.63
2018-12-19T16:14:02.646Z,44.93
2018-12-19T16:16:30.120Z,45.50
2018-12-19T16:18:57.642Z,47.73
2018-12-19T16:21:25.122Z,48.67
2018-12-19T16:23:52.596Z,49.73
2018-12-19T16:26:20.104Z,48.83
2018-12-19T16:28:47.594Z,48.10
2018-12-19T16:31:15.078Z,48.20
2018-12-19T16:33:42.584Z,50.53
2018-12-19T16:36:10.160Z,49.80
2018-12-19T16:38:37.640Z,57.77
2018-12-19T16:41:05.144Z,66.77
2018-12-19T16:43:32.621Z,61.90
2018-12-19T16:46:00.098Z,57.13
2018-12-19T16:48:27.640Z,56.23
2018-12-19T16:50:55.122Z,56.53
2018-12-19T16:53:22.596Z,54.23
2018-12-19T16:55:50.112Z,53.63
2018-12-19T16:58:17.592Z,52.17
2018-12-19T17:00:45.073Z,52.53
2018-12-19T17:03:12.576Z,55.17
2018-12-19T17:05:40.056Z,58.97
2018-12-19T17:08:07.541Z,60.23
2018-12-19T17:10:35.052Z,62.53
2018-12-19T17:13:02.659Z,65.27
2018-12-19T17:15:36.173Z,66.90
2018-12-19T17:18:03.669Z,63.67
2018-12-19T17:20:31.144Z,63.43
2018-12-19T17:22:58.660Z,67.03
2018-12-19T17:25:26.190Z,62.47
2018-12-19T17:27:53.676Z,62.60
2018-12-19T17:30:21.221Z,61.07
2018-12-19T17:32:49.246Z,61.10
2018-12-19T17:35:16.894Z,61.83
2018-12-19T17:37:44.533Z,64.23
2018-12-19T17:40:12.025Z,60.47
2018-12-19T17:42:39.505Z,65.57
2018-12-19T17:45:07.514Z,59.17
2018-12-19T17:47:34.996Z,64.30
2018-12-19T17:50:03.372Z,63.90
2018-12-19T17:52:30.886Z,62.60
2018-12-19T17:54:58.376Z,61.87
2018-12-19T17:57:25.858Z,65.83
2018-12-19T17:59:53.368Z,64.07
2018-12-19T18:02:20.943Z,64.80
2018-12-19T18:04:48.420Z,64.83
2018-12-19T18:07:15.933Z,62.30
2018-12-19T18:09:43.420Z,65.33
2018-12-19T18:12:10.901Z,67.00
2018-12-19T18:14:38.438Z,67.60
2018-12-19T18:17:06.019Z,64.63
2018-12-19T18:19:33.496Z,68.57
2018-12-19T18:22:01.117Z,64.60
2018-12-19T18:24:28.640Z,65.67
2018-12-19T18:26:56.125Z,60.87
2018-12-19T18:29:23.632Z,68.50
2018-12-19T18:31:51.113Z,67.97
2018-12-19T18:34:18.594Z,67.33
2018-12-19T18:36:46.099Z,64.57
2018-12-19T18:39:13.648Z,64.80
2018-12-19T18:41:41.190Z,67.17
2018-12-19T18:44:08.690Z,63.63
2018-12-19T18:46:36.183Z,64.17
2018-12-19T18:49:03.936Z,63.13
2018-12-19T18:51:31.440Z,63.43
2018-12-19T18:53:58.916Z,65.03
2018-12-19T18:56:26.417Z,68.20
2018-12-19T18:58:53.922Z,71.63
2018-12-19T19:01:21.401Z,68.17
2018-12-19T19:03:50.420Z,67.57
2018-12-19T19:06:18.294Z,59.37
2018-12-19T19:08:46.771Z,67.60
2018-12-19T19:11:14.470Z,65.30
2018-12-19T19:13:42.219Z,63.50
2018-12-19T19:16:09.705Z,66.60
2018-12-19T19:18:37.187Z,60.83
2018-12-19T19:21:04.704Z,60.83
2018-12-19T19:23:32.307Z,63.73
2018-12-19T19:25:59.793Z,61.60
2018-12-19T19:28:27.368Z,63.70
2018-12-19T19:30:54.841Z,68.33
2018-12-19T19:33:22.324Z,63.07
2018-12-19T19:35:49.932Z,62.37
2018-12-19T19:38:17.417Z,66.23
2018-12-19T19:40:45.018Z,60.00
2018-12-19T19:43:12.532Z,61.60
2018-12-19T19:45:40.016Z,60.63
2018-12-19T19:48:07.504Z,61.40
2018-12-19T19:50:35.054Z,61.83
2018-12-19T19:53:02.626Z,62.20
2018-12-19T19:55:30.104Z,63.30
2018-12-19T19:57:57.610Z,61.77
2018-12-19T20:00:28.779Z,62.37
2018-12-19T20:02:56.277Z,64.40
2018-12-19T20:05:23.782Z,68.50
2018-12-19T20:07:51.266Z,70.10
2018-12-19T20:10:18.758Z,70.30
2018-12-19T20:12:46.270Z,70.13
2018-12-19T20:15:13.750Z,64.47
2018-12-19T20:17:41.236Z,65.23
2018-12-19T20:20:08.741Z,63.17
2018-12-19T20:22:36.216Z,61.80
2018-12-19T20:25:03.883Z,65.37
2018-12-19T20:27:31.392Z,63.63
2018-12-19T20:29:58.871Z,62.23
2018-12-19T20:32:26.348Z,62.83
2018-12-19T20:34:53.873Z,65.93
2018-12-19T20:37:21.403Z,61.83
2018-12-19T20:39:48.880Z,65.87
2018-12-19T20:42:16.389Z,65.17
2018-12-19T20:44:43.876Z,64.63
2018-12-19T20:47:11.357Z,68.67
2018-12-19T20:49:38.868Z,67.43
2018-12-19T20:52:06.351Z,64.67
2018-12-19T20:54:33.855Z,68.40
2018-12-19T20:57:01.478Z,66.40
2018-12-19T20:59:29.052Z,67.00
2018-12-19T21:01:56.650Z,67.57
2018-12-19T21:04:24.165Z,64.77
2018-12-19T21:06:51.649Z,64.37
2018-12-19T21:09:19.144Z,63.50
2018-12-19T21:11:46.652Z,65.80
2018-12-19T21:14:14.250Z,62.93
2018-12-19T21:16:47.472Z,63.50
2018-12-19T21:19:14.958Z,66.40
2018-12-19T21:21:42.436Z,66.10
2018-12-19T21:24:09.941Z,63.33
2018-12-19T21:26:37.424Z,65.53
2018-12-19T21:29:04.916Z,69.83
2018-12-19T21:31:32.529Z,64.90
2018-12-19T21:34:00.009Z,64.83
2018-12-19T21:36:27.640Z,68.53
2018-12-19T21:38:55.147Z,64.37
2018-12-19T21:41:22.626Z,63.40
2018-12-19T21:43:53.568Z,62.20
2018-12-19T21:46:19.657Z,66.43
2018-12-19T21:48:47.933Z,63.97
2018-12-19T21:51:15.451Z,65.03
2018-12-19T21:53:43.125Z,63.70
2018-12-19T21:56:10.653Z,66.97
2018-12-19T21:58:38.133Z,65.87
2018-12-19T22:01:05.656Z,67.43
2018-12-19T22:03:33.149Z,65.07
2018-12-19T22:06:00.843Z,65.50
2018-12-19T22:08:28.497Z,64.77
2018-12-19T22:10:55.972Z,67.07
2018-12-19T22:13:23.466Z,69.00
2018-12-19T22:15:51.050Z,67.47
2018-12-19T22:18:24.834Z,66.87
2018-12-19T22:20:52.382Z,66.53
2018-12-19T22:23:19.972Z,68.40
2018-12-19T22:25:47.456Z,67.90
2018-12-19T22:28:15.008Z,64.77
2018-12-19T22:30:42.589Z,64.97
2018-12-19T22:33:10.068Z,67.27
2018-12-19T22:35:37.672Z,64.97
2018-12-19T22:38:05.184Z,65.47
2018-12-19T22:40:32.765Z,66.13
2018-12-19T22:43:00.265Z,65.30
2018-12-19T22:45:27.792Z,66.67
2018-12-19T22:47:55.352Z,65.83
2018-12-19T22:50:23.041Z,65.43
2018-12-19T22:52:50.812Z,64.77
2018-12-19T22:55:18.302Z,67.23
2018-12-19T22:57:45.871Z,65.77
2018-12-19T23:00:15.997Z,65.63
2018-12-19T23:02:49.227Z,64.77
2018-12-19T23:05:19.066Z,63.50
2018-12-19T23:07:46.596Z,64.33
2018-12-19T23:10:14.175Z,66.33
2018-12-19T23:12:41.714Z,62.73
2018-12-19T23:15:09.293Z,63.77
2018-12-19T23:17:39.872Z,63.60
2018-12-19T23:20:09.454Z,63.90
2018-12-19T23:22:36.992Z,62.73
2018-12-19T23:25:05.253Z,64.47
2018-12-19T23:27:33.515Z,68.47
2018-12-19T23:30:01.032Z,64.90
2018-12-19T23:32:28.701Z,66.13
2018-12-19T23:34:56.507Z,67.23
2018-12-19T23:37:24.140Z,66.20
2018-12-19T23:39:51.676Z,68.03
2018-12-19T23:42:19.609Z,65.73
2018-12-19T23:44:47.157Z,67.93
2018-12-19T23:47:14.669Z,68.37
2018-12-19T23:49:42.154Z,67.53
2018-12-19T23:52:09.855Z,67.63
2018-12-19T23:54:37.387Z,67.50
2018-12-19T23:57:04.973Z,69.47
2018-12-19T23:59:32.461Z,69.07
